Time;durP1;ratioP1;P1;durP2;ratioP2;P2;SDS_P1;SDS_P2;PMS_P1;PMS_P2;Temp;Humidity;BMP_temperature;BMP_pressure;BME280_temperature;BME280_humidity;BME280_pressure;Samples;Min_cycle;Max_cycle;Signal;HPM_P1;HPM_P2
2024/02/21 00:01:16;;;;;;;0.30;0.30;;;;;;;;;;5056019;28;20231;-81
2024/02/21 00:03:43;;;;;;;0.40;0.40;;;;;;;;;;5060251;28;20231;-83
2024/02/21 00:06:09;;;;;;;0.93;0.93;;;;;;;;;;5041505;28;20239;-84
2024/02/21 00:08:36;;;;;;;0.30;0.30;;;;;;;;;;5041296;28;20235;-81
2024/02/21 00:11:03;;;;;;;0.30;0.30;;;;;;;;;;5043881;28;20228;-83
2024/02/21 00:13:30;;;;;;;0.30;0.30;;;;;;;;;;5048940;28;20220;-81
2024/02/21 00:15:57;;;;;;;0.30;0.30;;;;;;;;;;5045362;28;20230;-81
2024/02/21 00:18:23;;;;;;;0.30;0.30;;;;;;;;;;5044919;28;20232;-84
2024/02/21 00:20:55;;;;;;;0.40;0.40;;;;;;;;;;5046749;28;20231;-83
2024/02/21 00:23:22;;;;;;;0.30;0.30;;;;;;;;;;5045650;28;20246;-84
2024/02/21 00:25:48;;;;;;;0.30;0.30;;;;;;;;;;5042875;28;20274;-85
2024/02/21 00:28:15;;;;;;;0.30;0.30;;;;;;;;;;5043162;28;20232;-82
2024/02/21 00:30:42;;;;;;;0.30;0.30;;;;;;;;;;5043864;28;20292;-81
2024/02/21 00:33:08;;;;;;;0.73;0.73;;;;;;;;;;5042229;28;20246;-84
2024/02/21 00:35:34;;;;;;;0.30;0.30;;;;;;;;;;5044503;28;20215;-86
2024/02/21 00:38:03;;;;;;;0.30;0.30;;;;;;;;;;5041319;28;20266;-86
2024/02/21 00:40:29;;;;;;;0.30;0.30;;;;;;;;;;5043002;28;20224;-84
2024/02/21 00:42:56;;;;;;;0.70;0.70;;;;;;;;;;5046676;28;20300;-81
2024/02/21 00:45:23;;;;;;;0.40;0.40;;;;;;;;;;5045120;28;20228;-86
2024/02/21 00:47:49;;;;;;;0.30;0.30;;;;;;;;;;5043479;28;20238;-81
2024/02/21 00:50:16;;;;;;;0.40;0.40;;;;;;;;;;5060590;28;20719;-81
2024/02/21 00:52:43;;;;;;;0.57;0.57;;;;;;;;;;5063245;28;20235;-83
2024/02/21 00:55:10;;;;;;;0.30;0.30;;;;;;;;;;5065221;28;20246;-83
2024/02/21 00:57:37;;;;;;;0.50;0.50;;;;;;;;;;5034756;28;20310;-82
2024/02/21 01:00:04;;;;;;;0.30;0.30;;;;;;;;;;5027372;28;20233;-81
2024/02/21 01:02:31;;;;;;;0.30;0.30;;;;;;;;;;5042354;28;20220;-80
2024/02/21 01:04:58;;;;;;;0.30;0.30;;;;;;;;;;5045296;28;20258;-81
2024/02/21 01:07:24;;;;;;;1.53;1.43;;;;;;;;;;5026793;28;20239;-83
2024/02/21 01:09:51;;;;;;;0.30;0.30;;;;;;;;;;5043063;28;20289;-81
2024/02/21 01:12:18;;;;;;;7.20;0.73;;;;;;;;;;5045119;28;20829;-85
2024/02/21 01:14:46;;;;;;;0.30;0.30;;;;;;;;;;5043141;28;20269;-83
2024/02/21 01:17:12;;;;;;;0.30;0.30;;;;;;;;;;5029468;28;20228;-80
2024/02/21 01:19:39;;;;;;;0.30;0.30;;;;;;;;;;5043980;28;20219;-84
2024/02/21 01:22:08;;;;;;;0.30;0.30;;;;;;;;;;5042662;28;20220;-84
2024/02/21 01:24:35;;;;;;;0.30;0.30;;;;;;;;;;5044704;28;20223;-81
2024/02/21 01:27:02;;;;;;;0.30;0.30;;;;;;;;;;5030665;28;20234;-84
2024/02/21 01:29:28;;;;;;;0.40;0.40;;;;;;;;;;5044996;28;20723;-87
2024/02/21 01:31:55;;;;;;;0.30;0.30;;;;;;;;;;5025688;28;20229;-84
2024/02/21 01:34:22;;;;;;;0.30;0.30;;;;;;;;;;5025724;28;20232;-84
2024/02/21 01:36:48;;;;;;;0.30;0.30;;;;;;;;;;5040758;28;20226;-84
2024/02/21 01:39:15;;;;;;;0.40;0.40;;;;;;;;;;5041460;28;20735;-84
2024/02/21 01:41:41;;;;;;;0.40;0.40;;;;;;;;;;5044957;28;20223;-82
2024/02/21 01:44:08;;;;;;;0.30;0.30;;;;;;;;;;5047636;28;20234;-79
2024/02/21 01:46:35;;;;;;;0.30;0.30;;;;;;;;;;5061071;28;20214;-79
2024/02/21 01:49:01;;;;;;;0.27;0.27;;;;;;;;;;5066580;28;20228;-80
2024/02/21 01:51:28;;;;;;;0.30;0.30;;;;;;;;;;5030230;28;20259;-81
2024/02/21 01:53:56;;;;;;;0.30;0.30;;;;;;;;;;5027462;28;20251;-83
2024/02/21 01:56:23;;;;;;;0.20;0.20;;;;;;;;;;5044530;28;20232;-81
2024/02/21 01:58:51;;;;;;;0.30;0.30;;;;;;;;;;5043593;28;20223;-83
2024/02/21 02:01:18;;;;;;;0.50;0.50;;;;;;;;;;5027718;28;20615;-82
2024/02/21 02:03:48;;;;;;;0.60;0.60;;;;;;;;;;5027713;28;20223;-83
2024/02/21 02:06:15;;;;;;;0.40;0.40;;;;;;;;;;5045624;28;20262;-84
2024/02/21 02:08:42;;;;;;;0.30;0.30;;;;;;;;;;5026223;28;20242;-78
2024/02/21 02:11:08;;;;;;;0.30;0.30;;;;;;;;;;5026694;28;20228;-81
2024/02/21 02:13:36;;;;;;;0.53;0.53;;;;;;;;;;5048094;28;20660;-83
2024/02/21 02:16:03;;;;;;;2.23;0.70;;;;;;;;;;5025206;28;20587;-84
2024/02/21 02:18:30;;;;;;;0.63;0.63;;;;;;;;;;5044410;28;20223;-83
2024/02/21 02:20:57;;;;;;;0.50;0.50;;;;;;;;;;5039762;28;20220;-84
2024/02/21 02:23:34;;;;;;;0.30;0.30;;;;;;;;;;5042718;28;20224;-84
2024/02/21 02:26:01;;;;;;;0.60;0.60;;;;;;;;;;5043646;28;20222;-82
2024/02/21 02:28:27;;;;;;;0.77;0.77;;;;;;;;;;5028913;28;20304;-83
2024/02/21 02:30:54;;;;;;;0.30;0.30;;;;;;;;;;5045251;28;20310;-87
2024/02/21 02:33:20;;;;;;;0.20;0.20;;;;;;;;;;5066544;28;20243;-82
2024/02/21 02:35:47;;;;;;;0.30;0.30;;;;;;;;;;5048088;28;20812;-82
2024/02/21 02:38:14;;;;;;;0.30;0.30;;;;;;;;;;5061548;28;20284;-84
2024/02/21 02:40:41;;;;;;;0.30;0.30;;;;;;;;;;5066977;28;20757;-83
2024/02/21 02:43:09;;;;;;;0.30;0.30;;;;;;;;;;5065249;28;20405;-83
2024/02/21 02:45:36;;;;;;;0.33;0.33;;;;;;;;;;5067226;28;20254;-85
2024/02/21 02:48:02;;;;;;;0.30;0.30;;;;;;;;;;5065042;28;20227;-82
2024/02/21 02:50:29;;;;;;;0.30;0.30;;;;;;;;;;5060056;28;20645;-84
2024/02/21 02:52:56;;;;;;;0.33;0.33;;;;;;;;;;5044053;28;20219;-81
2024/02/21 02:55:23;;;;;;;0.30;0.30;;;;;;;;;;5064814;28;20230;-84
2024/02/21 02:57:50;;;;;;;0.40;0.40;;;;;;;;;;5043471;28;20624;-83
2024/02/21 03:00:16;;;;;;;0.30;0.30;;;;;;;;;;5066854;28;20253;-80
2024/02/21 03:02:45;;;;;;;0.30;0.30;;;;;;;;;;5049449;28;20293;-78
2024/02/21 03:05:14;;;;;;;0.30;0.30;;;;;;;;;;5064785;28;20226;-81
2024/02/21 03:07:42;;;;;;;0.30;0.30;;;;;;;;;;5066190;28;20226;-83
2024/02/21 03:10:09;;;;;;;0.20;0.20;;;;;;;;;;5048239;28;20262;-84
2024/02/21 03:12:37;;;;;;;0.30;0.30;;;;;;;;;;5046112;28;20227;-82
2024/02/21 03:15:05;;;;;;;0.40;0.40;;;;;;;;;;5043657;28;20234;-84
2024/02/21 03:17:34;;;;;;;0.43;0.43;;;;;;;;;;5065874;28;20318;-82
2024/02/21 03:20:05;;;;;;;0.40;0.40;;;;;;;;;;5065377;28;20823;-84
2024/02/21 03:22:32;;;;;;;0.30;0.30;;;;;;;;;;5063814;28;20223;-85
2024/02/21 03:24:59;;;;;;;0.30;0.30;;;;;;;;;;5030048;28;20224;-81
2024/02/21 03:27:26;;;;;;;0.30;0.30;;;;;;;;;;5053312;28;20684;-83
2024/02/21 03:29:52;;;;;;;0.30;0.30;;;;;;;;;;5063938;28;20223;-83
2024/02/21 03:32:19;;;;;;;0.30;0.30;;;;;;;;;;5066828;28;20803;-84
2024/02/21 03:34:46;;;;;;;0.30;0.30;;;;;;;;;;5064477;28;20252;-81
2024/02/21 03:37:13;;;;;;;0.30;0.30;;;;;;;;;;5077539;28;20231;-81
2024/02/21 03:39:40;;;;;;;0.20;0.20;;;;;;;;;;5038738;28;20230;-84
2024/02/21 03:42:07;;;;;;;0.30;0.30;;;;;;;;;;5030649;28;20228;-84
2024/02/21 03:44:34;;;;;;;0.30;0.30;;;;;;;;;;5044669;28;20726;-84
2024/02/21 03:47:00;;;;;;;0.47;0.47;;;;;;;;;;5045676;28;20266;-83
2024/02/21 03:49:27;;;;;;;0.30;0.30;;;;;;;;;;5048891;28;20596;-84
2024/02/21 03:51:54;;;;;;;0.30;0.30;;;;;;;;;;5042603;28;20234;-81
2024/02/21 03:54:21;;;;;;;0.30;0.30;;;;;;;;;;5044078;28;20251;-83
2024/02/21 03:56:48;;;;;;;0.30;0.30;;;;;;;;;;5031442;28;20305;-84
2024/02/21 03:59:15;;;;;;;0.30;0.30;;;;;;;;;;5066612;28;20754;-82
2024/02/21 04:01:42;;;;;;;0.30;0.30;;;;;;;;;;5037068;28;20224;-83
2024/02/21 04:04:10;;;;;;;0.40;0.40;;;;;;;;;;5026645;28;20334;-83
2024/02/21 04:06:36;;;;;;;0.60;0.60;;;;;;;;;;5044743;28;20309;-85
2024/02/21 04:09:03;;;;;;;0.30;0.30;;;;;;;;;;5045048;28;20288;-83
2024/02/21 04:11:29;;;;;;;0.30;0.30;;;;;;;;;;5026358;28;20223;-85
2024/02/21 04:13:56;;;;;;;0.30;0.30;;;;;;;;;;5026784;28;20220;-82
2024/02/21 04:16:23;;;;;;;0.30;0.30;;;;;;;;;;5025357;28;20719;-82
2024/02/21 04:18:49;;;;;;;0.40;0.40;;;;;;;;;;5041224;28;20255;-80
2024/02/21 04:21:17;;;;;;;0.30;0.30;;;;;;;;;;5045000;28;20758;-81
2024/02/21 04:23:43;;;;;;;0.30;0.30;;;;;;;;;;5027441;28;20243;-83
2024/02/21 04:26:10;;;;;;;0.30;0.30;;;;;;;;;;5031018;28;20751;-81
2024/02/21 04:28:36;;;;;;;0.30;0.30;;;;;;;;;;5044686;28;20212;-78
2024/02/21 04:31:03;;;;;;;0.30;0.30;;;;;;;;;;5050045;28;20215;-80
2024/02/21 04:33:30;;;;;;;0.30;0.30;;;;;;;;;;5040027;28;20228;-81
2024/02/21 04:35:58;;;;;;;0.30;0.30;;;;;;;;;;5040319;28;20227;-82
2024/02/21 04:38:24;;;;;;;0.30;0.30;;;;;;;;;;5024210;28;20220;-83
2024/02/21 04:40:51;;;;;;;0.30;0.30;;;;;;;;;;5042797;28;20605;-84
2024/02/21 04:43:17;;;;;;;0.30;0.30;;;;;;;;;;5042456;28;20834;-81
2024/02/21 04:45:44;;;;;;;0.23;0.23;;;;;;;;;;5024669;28;20269;-83
2024/02/21 04:48:11;;;;;;;0.20;0.20;;;;;;;;;;5040536;28;20700;-82
2024/02/21 04:50:37;;;;;;;0.40;0.40;;;;;;;;;;5040405;28;20613;-83
2024/02/21 04:53:04;;;;;;;0.30;0.30;;;;;;;;;;5024798;28;20331;-86
2024/02/21 04:55:31;;;;;;;0.30;0.30;;;;;;;;;;5029902;28;20227;-83
2024/02/21 04:57:57;;;;;;;0.30;0.30;;;;;;;;;;5040364;28;20277;-83
2024/02/21 05:00:23;;;;;;;0.20;0.20;;;;;;;;;;5043688;28;20227;-84
2024/02/21 05:02:50;;;;;;;0.50;0.50;;;;;;;;;;5042362;28;20309;-83
2024/02/21 05:05:16;;;;;;;0.77;0.60;;;;;;;;;;5027034;28;20237;-84
2024/02/21 05:07:43;;;;;;;0.40;0.40;;;;;;;;;;5041367;28;20994;-84
2024/02/21 05:10:10;;;;;;;0.30;0.30;;;;;;;;;;5041979;28;20219;-81
2024/02/21 05:12:36;;;;;;;0.20;0.20;;;;;;;;;;5042270;28;20216;-82
2024/02/21 05:15:04;;;;;;;0.93;0.93;;;;;;;;;;5041238;28;20224;-82
2024/02/21 05:17:31;;;;;;;0.30;0.30;;;;;;;;;;5042710;28;20246;-81
2024/02/21 05:19:57;;;;;;;0.30;0.30;;;;;;;;;;5040449;28;20227;-83
2024/02/21 05:22:24;;;;;;;0.30;0.30;;;;;;;;;;5045255;28;20226;-81
2024/02/21 05:24:50;;;;;;;0.20;0.20;;;;;;;;;;5043246;28;20704;-84
2024/02/21 05:27:17;;;;;;;0.30;0.30;;;;;;;;;;5045084;28;20365;-85
2024/02/21 05:29:44;;;;;;;0.30;0.30;;;;;;;;;;5042773;28;20317;-85
2024/02/21 05:32:10;;;;;;;0.83;0.83;;;;;;;;;;5043294;28;20246;-81
2024/02/21 05:34:37;;;;;;;0.30;0.30;;;;;;;;;;5044468;28;20224;-84
2024/02/21 05:37:04;;;;;;;0.30;0.30;;;;;;;;;;5024147;28;20767;-85
2024/02/21 05:39:30;;;;;;;0.30;0.30;;;;;;;;;;5045882;28;20614;-83
2024/02/21 05:41:57;;;;;;;0.40;0.40;;;;;;;;;;5028736;28;20253;-82
2024/02/21 05:44:23;;;;;;;0.30;0.30;;;;;;;;;;5042701;28;20228;-82
2024/02/21 05:46:50;;;;;;;0.40;0.40;;;;;;;;;;5039816;28;20302;-82
2024/02/21 05:49:17;;;;;;;0.30;0.30;;;;;;;;;;5043083;28;20223;-82
2024/02/21 05:51:43;;;;;;;0.30;0.30;;;;;;;;;;5046669;28;20227;-83
2024/02/21 05:54:10;;;;;;;0.30;0.30;;;;;;;;;;5044361;28;20223;-83
2024/02/21 05:56:36;;;;;;;0.30;0.30;;;;;;;;;;5045748;28;20224;-85
2024/02/21 05:59:03;;;;;;;0.30;0.30;;;;;;;;;;5025370;28;20234;-85
2024/02/21 06:01:29;;;;;;;0.40;0.40;;;;;;;;;;5043988;28;20716;-84
2024/02/21 06:03:55;;;;;;;0.30;0.30;;;;;;;;;;5040775;28;20756;-84
2024/02/21 06:06:22;;;;;;;0.30;0.30;;;;;;;;;;5025655;28;20247;-81
2024/02/21 06:08:49;;;;;;;0.30;0.30;;;;;;;;;;5024538;28;20219;-89
2024/02/21 06:11:15;;;;;;;0.30;0.30;;;;;;;;;;5026205;28;20232;-86
2024/02/21 06:13:42;;;;;;;0.30;0.30;;;;;;;;;;5022778;28;20238;-82
2024/02/21 06:16:08;;;;;;;0.30;0.30;;;;;;;;;;5039751;28;20227;-79
2024/02/21 06:18:37;;;;;;;0.30;0.30;;;;;;;;;;5024797;28;20728;-80
2024/02/21 06:21:04;;;;;;;0.43;0.43;;;;;;;;;;5023386;28;20240;-80
2024/02/21 06:23:31;;;;;;;0.30;0.30;;;;;;;;;;5021939;28;20228;-80
2024/02/21 06:25:57;;;;;;;0.30;0.30;;;;;;;;;;5038772;28;20232;-80
2024/02/21 06:28:24;;;;;;;0.30;0.30;;;;;;;;;;5037990;28;20346;-80
2024/02/21 06:30:51;;;;;;;2.10;1.30;;;;;;;;;;5038090;28;20220;-80
2024/02/21 06:33:17;;;;;;;0.30;0.30;;;;;;;;;;5042182;28;20246;-79
2024/02/21 06:35:47;;;;;;;0.53;0.53;;;;;;;;;;5026056;28;20222;-80
2024/02/21 06:38:13;;;;;;;0.43;0.43;;;;;;;;;;5026343;28;20629;-83
2024/02/21 06:40:40;;;;;;;0.87;0.87;;;;;;;;;;5043488;28;20274;-79
2024/02/21 06:43:07;;;;;;;0.50;0.50;;;;;;;;;;5026169;28;20227;-80
2024/02/21 06:45:33;;;;;;;0.40;0.40;;;;;;;;;;5026277;28;20728;-82
2024/02/21 06:48:00;;;;;;;0.30;0.30;;;;;;;;;;5044406;28;20232;-80
2024/02/21 06:50:27;;;;;;;1.00;0.90;;;;;;;;;;5042171;28;20215;-83
2024/02/21 06:52:53;;;;;;;0.30;0.30;;;;;;;;;;5027005;28;20220;-81
2024/02/21 06:55:20;;;;;;;0.30;0.30;;;;;;;;;;5027212;28;20234;-82
2024/02/21 06:57:48;;;;;;;0.30;0.30;;;;;;;;;;5021894;28;20243;-79
2024/02/21 07:00:15;;;;;;;0.30;0.30;;;;;;;;;;5024368;28;20720;-81
2024/02/21 07:02:42;;;;;;;0.30;0.30;;;;;;;;;;5026510;28;20697;-81
2024/02/21 07:05:08;;;;;;;0.30;0.30;;;;;;;;;;5027374;28;20921;-81
2024/02/21 07:07:36;;;;;;;0.63;0.63;;;;;;;;;;5027732;28;20232;-80
2024/02/21 07:10:04;;;;;;;0.27;0.27;;;;;;;;;;5039659;28;20208;-77
2024/02/21 07:12:30;;;;;;;0.30;0.30;;;;;;;;;;5050416;28;20216;-79
2024/02/21 07:14:57;;;;;;;0.60;0.60;;;;;;;;;;5049976;28;20276;-79
2024/02/21 07:17:24;;;;;;;0.50;0.50;;;;;;;;;;5048907;28;20279;-79
2024/02/21 07:19:51;;;;;;;0.30;0.30;;;;;;;;;;5024768;28;20220;-81
2024/02/21 07:22:17;;;;;;;0.30;0.30;;;;;;;;;;5042293;28;20720;-82
2024/02/21 07:24:44;;;;;;;0.30;0.30;;;;;;;;;;5041983;28;20338;-79
2024/02/21 07:27:10;;;;;;;0.30;0.30;;;;;;;;;;5041629;28;20235;-81
2024/02/21 07:29:36;;;;;;;0.40;0.40;;;;;;;;;;5025949;28;20592;-82
2024/02/21 07:32:03;;;;;;;0.40;0.40;;;;;;;;;;5025989;28;20281;-80
2024/02/21 07:34:30;;;;;;;0.57;0.57;;;;;;;;;;5024485;28;20720;-81
2024/02/21 07:36:57;;;;;;;0.27;0.27;;;;;;;;;;5026273;28;20224;-80
2024/02/21 07:39:24;;;;;;;0.60;0.60;;;;;;;;;;5042578;28;20716;-80
2024/02/21 07:41:50;;;;;;;0.30;0.30;;;;;;;;;;5042171;28;20224;-79
2024/02/21 07:44:17;;;;;;;0.30;0.30;;;;;;;;;;5043016;28;20219;-80
2024/02/21 07:46:43;;;;;;;0.30;0.30;;;;;;;;;;5026480;28;20713;-80
2024/02/21 07:49:10;;;;;;;0.50;0.50;;;;;;;;;;5025777;28;20227;-80
2024/02/21 07:51:37;;;;;;;0.30;0.30;;;;;;;;;;5026868;28;20246;-80
2024/02/21 07:54:04;;;;;;;0.30;0.30;;;;;;;;;;5024545;28;20227;-80
2024/02/21 07:56:31;;;;;;;0.30;0.30;;;;;;;;;;5026453;28;20259;-82
2024/02/21 07:58:57;;;;;;;0.30;0.30;;;;;;;;;;5043380;28;20648;-79
2024/02/21 08:01:25;;;;;;;0.30;0.30;;;;;;;;;;5026717;28;20278;-79
2024/02/21 08:03:52;;;;;;;0.30;0.30;;;;;;;;;;5024410;28;20619;-76
2024/02/21 08:06:19;;;;;;;0.30;0.30;;;;;;;;;;5022464;28;20321;-76
2024/02/21 08:08:46;;;;;;;0.30;0.30;;;;;;;;;;5022642;28;20659;-77
2024/02/21 08:11:13;;;;;;;0.40;0.40;;;;;;;;;;5047485;28;20233;-75
2024/02/21 08:13:39;;;;;;;0.30;0.30;;;;;;;;;;5059442;28;20659;-76
2024/02/21 08:16:06;;;;;;;0.30;0.30;;;;;;;;;;5061401;28;20250;-75
2024/02/21 08:18:36;;;;;;;0.50;0.50;;;;;;;;;;5052984;28;20223;-75
2024/02/21 08:21:03;;;;;;;0.30;0.30;;;;;;;;;;5058436;28;20229;-77
2024/02/21 08:23:29;;;;;;;0.30;0.30;;;;;;;;;;5040261;28;20705;-78
2024/02/21 08:25:56;;;;;;;0.30;0.30;;;;;;;;;;5056015;28;20227;-75
2024/02/21 08:28:23;;;;;;;0.30;0.30;;;;;;;;;;5056855;28;20223;-77
2024/02/21 08:30:50;;;;;;;0.30;0.30;;;;;;;;;;5058375;28;20227;-77
2024/02/21 08:33:16;;;;;;;0.30;0.30;;;;;;;;;;5056492;28;20314;-77
2024/02/21 08:35:43;;;;;;;0.30;0.30;;;;;;;;;;5042290;28;20313;-75
2024/02/21 08:38:09;;;;;;;0.30;0.30;;;;;;;;;;5057298;28;20225;-78
2024/02/21 08:40:37;;;;;;;0.67;0.67;;;;;;;;;;5057532;28;20284;-78
2024/02/21 08:43:03;;;;;;;0.30;0.30;;;;;;;;;;5040801;28;20305;-76
2024/02/21 08:45:30;;;;;;;0.30;0.30;;;;;;;;;;5057734;28;20222;-76
2024/02/21 08:47:57;;;;;;;0.30;0.30;;;;;;;;;;5039650;28;20714;-78
2024/02/21 08:50:23;;;;;;;0.30;0.30;;;;;;;;;;5046894;28;20231;-76
2024/02/21 08:52:55;;;;;;;0.30;0.30;;;;;;;;;;5057195;28;20227;-78
2024/02/21 08:55:22;;;;;;;0.30;0.30;;;;;;;;;;5041612;28;20310;-76
2024/02/21 08:57:48;;;;;;;0.27;0.27;;;;;;;;;;5050130;28;20227;-76
2024/02/21 09:00:16;;;;;;;0.30;0.30;;;;;;;;;;5049221;28;20229;-77
2024/02/21 09:02:43;;;;;;;0.30;0.30;;;;;;;;;;5065755;28;20317;-76
2024/02/21 09:05:09;;;;;;;0.30;0.30;;;;;;;;;;5041452;28;20223;-77
2024/02/21 09:07:36;;;;;;;0.20;0.20;;;;;;;;;;5042056;28;20222;-78
2024/02/21 09:10:04;;;;;;;0.30;0.30;;;;;;;;;;5058262;28;20255;-77
2024/02/21 09:12:30;;;;;;;0.30;0.30;;;;;;;;;;5059116;28;20227;-77
2024/02/21 09:14:56;;;;;;;0.30;0.30;;;;;;;;;;5040395;28;20722;-77
2024/02/21 09:17:24;;;;;;;0.30;0.30;;;;;;;;;;5059353;28;20230;-77
2024/02/21 09:19:52;;;;;;;0.53;0.53;;;;;;;;;;5058045;28;20230;-78
2024/02/21 09:22:18;;;;;;;0.47;0.47;;;;;;;;;;5042603;28;20651;-78
2024/02/21 09:24:45;;;;;;;0.30;0.30;;;;;;;;;;5039821;28;20226;-78
2024/02/21 09:27:12;;;;;;;0.30;0.30;;;;;;;;;;5058030;28;20344;-77
2024/02/21 09:29:39;;;;;;;0.30;0.30;;;;;;;;;;5057436;28;20226;-78
2024/02/21 09:32:06;;;;;;;0.83;0.83;;;;;;;;;;5041759;28;20223;-79
2024/02/21 09:34:34;;;;;;;0.20;0.20;;;;;;;;;;5041577;28;20298;-77
2024/02/21 09:37:01;;;;;;;0.30;0.30;;;;;;;;;;5058831;28;20257;-78
2024/02/21 09:39:28;;;;;;;0.57;0.57;;;;;;;;;;5038012;28;20221;-79
2024/02/21 09:41:59;;;;;;;0.30;0.30;;;;;;;;;;5040741;28;20222;-77
2024/02/21 09:44:31;;;;;;;0.30;0.30;;;;;;;;;;5056318;28;20223;-79
2024/02/21 09:47:17;;;;;;;0.30;0.30;;;;;;;;;;5058185;28;20231;-77
2024/02/21 09:49:45;;;;;;;0.30;0.30;;;;;;;;;;5040104;28;20232;-78
2024/02/21 09:52:14;;;;;;;0.20;0.20;;;;;;;;;;5057032;28;20652;-79
2024/02/21 09:54:44;;;;;;;0.30;0.30;;;;;;;;;;5040102;28;20229;-78
2024/02/21 09:57:11;;;;;;;1.10;1.03;;;;;;;;;;5070092;28;20231;-76
2024/02/21 09:59:37;;;;;;;0.30;0.30;;;;;;;;;;5074807;28;20215;-76
2024/02/21 10:02:04;;;;;;;0.30;0.30;;;;;;;;;;5056516;28;20252;-77
2024/02/21 10:04:32;;;;;;;0.30;0.30;;;;;;;;;;5047660;28;20253;-77
2024/02/21 10:06:59;;;;;;;0.30;0.30;;;;;;;;;;5057949;28;20227;-78
2024/02/21 10:09:27;;;;;;;2.40;1.00;;;;;;;;;;5041156;28;20223;-77
2024/02/21 10:12:11;;;;;;;0.30;0.30;;;;;;;;;;5042920;28;20224;-76
2024/02/21 10:14:39;;;;;;;0.30;0.30;;;;;;;;;;5023095;28;20223;-77
2024/02/21 10:17:09;;;;;;;0.83;0.50;;;;;;;;;;5042106;28;20322;-78
2024/02/21 10:19:37;;;;;;;0.40;0.40;;;;;;;;;;5042198;28;20224;-78
2024/02/21 10:22:07;;;;;;;0.30;0.30;;;;;;;;;;5024031;28;20262;-79
2024/02/21 10:24:34;;;;;;;1.50;1.23;;;;;;;;;;5040961;28;20219;-78
2024/02/21 10:27:08;;;;;;;0.30;0.30;;;;;;;;;;5041141;28;20235;-77
2024/02/21 10:29:35;;;;;;;1.07;0.97;;;;;;;;;;5023814;28;20234;-77
2024/02/21 10:32:09;;;;;;;0.30;0.30;;;;;;;;;;5024795;28;20233;-78
2024/02/21 10:34:37;;;;;;;0.20;0.20;;;;;;;;;;5040274;28;20569;-79
2024/02/21 10:37:13;;;;;;;0.30;0.30;;;;;;;;;;5024243;28;20227;-78
2024/02/21 10:39:41;;;;;;;0.30;0.30;;;;;;;;;;5041208;28;20539;-78
2024/02/21 10:42:11;;;;;;;0.30;0.30;;;;;;;;;;5025681;28;20317;-78
2024/02/21 10:44:40;;;;;;;0.30;0.30;;;;;;;;;;5022191;28;20223;-77
2024/02/21 10:47:09;;;;;;;0.27;0.27;;;;;;;;;;5041525;28;20322;-77
2024/02/21 10:49:40;;;;;;;0.40;0.40;;;;;;;;;;5019420;28;20593;-78
2024/02/21 10:52:20;;;;;;;0.30;0.30;;;;;;;;;;5023056;28;20343;-77
2024/02/21 10:54:56;;;;;;;0.40;0.40;;;;;;;;;;5039446;28;20224;-78
2024/02/21 10:57:23;;;;;;;0.30;0.30;;;;;;;;;;5045360;28;20656;-76
2024/02/21 10:59:51;;;;;;;0.30;0.30;;;;;;;;;;5040326;28;20226;-77
2024/02/21 11:02:17;;;;;;;0.30;0.30;;;;;;;;;;5056101;28;20227;-78
2024/02/21 11:04:45;;;;;;;0.47;0.47;;;;;;;;;;5040827;28;20231;-78
2024/02/21 11:07:13;;;;;;;0.20;0.20;;;;;;;;;;5056214;28;20233;-77
2024/02/21 11:09:39;;;;;;;0.57;0.57;;;;;;;;;;5049133;28;20223;-78
2024/02/21 11:12:07;;;;;;;0.43;0.43;;;;;;;;;;5051412;28;20223;-77
2024/02/21 11:14:37;;;;;;;0.87;0.47;;;;;;;;;;5054349;28;20227;-77
2024/02/21 11:17:14;;;;;;;0.30;0.30;;;;;;;;;;5049167;28;20659;-77
2024/02/21 11:19:41;;;;;;;0.30;0.30;;;;;;;;;;5043600;28;20306;-78
2024/02/21 11:22:17;;;;;;;0.30;0.30;;;;;;;;;;5030391;28;20255;-78
2024/02/21 11:24:44;;;;;;;0.30;0.30;;;;;;;;;;5057081;28;20246;-78
2024/02/21 11:27:25;;;;;;;0.30;0.30;;;;;;;;;;5057339;28;20273;-79
2024/02/21 11:29:57;;;;;;;0.30;0.30;;;;;;;;;;5055776;28;20314;-76
2024/02/21 11:32:25;;;;;;;0.47;0.47;;;;;;;;;;5058237;28;20292;-78
2024/02/21 11:35:01;;;;;;;0.30;0.30;;;;;;;;;;5051034;28;20595;-76
2024/02/21 11:37:33;;;;;;;0.50;0.50;;;;;;;;;;5017841;28;20238;-78
2024/02/21 11:40:00;;;;;;;0.40;0.40;;;;;;;;;;5038463;28;20223;-79
2024/02/21 11:42:28;;;;;;;0.30;0.30;;;;;;;;;;5036742;28;20231;-77
2024/02/21 11:44:56;;;;;;;0.30;0.30;;;;;;;;;;5018701;28;20232;-77
2024/02/21 11:47:24;;;;;;;0.77;0.77;;;;;;;;;;5036753;28;20472;-78
2024/02/21 11:49:53;;;;;;;0.30;0.30;;;;;;;;;;5037125;28;20349;-80
2024/02/21 11:52:25;;;;;;;0.30;0.30;;;;;;;;;;5021315;28;20254;-79
2024/02/21 11:54:54;;;;;;;0.40;0.40;;;;;;;;;;5035423;28;20261;-77
2024/02/21 11:57:21;;;;;;;0.30;0.30;;;;;;;;;;5028632;28;20224;-79
2024/02/21 11:59:49;;;;;;;0.63;0.63;;;;;;;;;;5039297;28;20310;-77
2024/02/21 12:02:18;;;;;;;0.33;0.33;;;;;;;;;;5035442;28;20293;-78
2024/02/21 12:04:45;;;;;;;0.30;0.30;;;;;;;;;;5040889;28;20279;-79
2024/02/21 12:07:11;;;;;;;0.30;0.30;;;;;;;;;;5058472;28;20262;-80
2024/02/21 12:09:41;;;;;;;0.40;0.40;;;;;;;;;;5058371;28;20222;-80
2024/02/21 12:12:08;;;;;;;0.30;0.30;;;;;;;;;;5052743;28;20235;-78
2024/02/21 12:14:35;;;;;;;0.55;0.55;;;;;;;;;;5023270;28;20232;-79
2024/02/21 12:17:05;;;;;;;0.30;0.30;;;;;;;;;;5022177;28;20219;-78
2024/02/21 12:19:33;;;;;;;0.30;0.30;;;;;;;;;;5049002;28;20253;-79
2024/02/21 12:22:00;;;;;;;0.30;0.30;;;;;;;;;;5064511;28;20250;-78
2024/02/21 12:24:28;;;;;;;0.85;0.82;;;;;;;;;;5058625;28;20227;-77
2024/02/21 12:26:56;;;;;;;0.30;0.30;;;;;;;;;;5059535;28;20230;-77
2024/02/21 12:29:26;;;;;;;0.30;0.30;;;;;;;;;;5035013;28;20223;-79
2024/02/21 12:31:54;;;;;;;0.30;0.30;;;;;;;;;;5023198;28;20309;-79
2024/02/21 12:34:22;;;;;;;0.30;0.30;;;;;;;;;;5038598;28;20595;-80
2024/02/21 12:37:03;;;;;;;0.50;0.50;;;;;;;;;;5046177;28;20230;-77
2024/02/21 12:39:31;;;;;;;0.30;0.30;;;;;;;;;;5043725;28;20233;-79
2024/02/21 12:41:59;;;;;;;0.43;0.43;;;;;;;;;;5054861;28;20715;-80
2024/02/21 12:44:25;;;;;;;0.50;0.50;;;;;;;;;;5061090;28;20223;-80
2024/02/21 12:46:53;;;;;;;0.38;0.38;;;;;;;;;;5061281;28;20229;-78
2024/02/21 12:49:21;;;;;;;0.32;0.32;;;;;;;;;;5074988;28;20227;-78
2024/02/21 12:51:48;;;;;;;0.43;0.43;;;;;;;;;;5072558;28;20223;-81
2024/02/21 12:54:15;;;;;;;0.63;0.63;;;;;;;;;;5040904;28;20226;-77
2024/02/21 12:56:41;;;;;;;0.40;0.40;;;;;;;;;;5043030;28;20234;-77
2024/02/21 12:59:08;;;;;;;0.40;0.40;;;;;;;;;;5042417;28;20245;-79
2024/02/21 13:01:37;;;;;;;0.30;0.30;;;;;;;;;;5061759;28;20231;-78
2024/02/21 13:04:05;;;;;;;0.30;0.30;;;;;;;;;;5058057;28;20272;-77
2024/02/21 13:06:31;;;;;;;0.35;0.35;;;;;;;;;;5038874;28;20505;-77
2024/02/21 13:08:59;;;;;;;0.30;0.30;;;;;;;;;;5059322;28;20230;-79
2024/02/21 13:11:28;;;;;;;0.35;0.35;;;;;;;;;;5065212;28;20269;-78
2024/02/21 13:13:54;;;;;;;0.30;0.30;;;;;;;;;;5062895;28;20223;-75
2024/02/21 13:16:22;;;;;;;0.47;0.47;;;;;;;;;;5055711;28;20228;-79
2024/02/21 13:18:48;;;;;;;0.40;0.40;;;;;;;;;;5032847;28;20227;-78
2024/02/21 13:21:15;;;;;;;0.30;0.30;;;;;;;;;;5020675;28;20224;-78
2024/02/21 13:23:44;;;;;;;0.30;0.30;;;;;;;;;;5036240;28;20231;-81
2024/02/21 13:26:11;;;;;;;1.88;0.98;;;;;;;;;;5037768;28;20298;-78
2024/02/21 13:28:37;;;;;;;0.30;0.30;;;;;;;;;;5038660;28;20243;-78
2024/02/21 13:31:04;;;;;;;0.30;0.30;;;;;;;;;;5021890;28;20285;-79
2024/02/21 13:33:30;;;;;;;0.63;0.63;;;;;;;;;;5037442;28;20232;-80
2024/02/21 13:35:57;;;;;;;0.30;0.30;;;;;;;;;;5038575;28;20574;-76
2024/02/21 13:38:24;;;;;;;0.50;0.50;;;;;;;;;;5037797;28;20235;-77
2024/02/21 13:40:50;;;;;;;0.30;0.30;;;;;;;;;;5039906;28;20311;-77
2024/02/21 13:43:17;;;;;;;0.38;0.38;;;;;;;;;;5023202;28;20227;-80
2024/02/21 13:45:55;;;;;;;0.38;0.38;;;;;;;;;;5026511;28;20231;-77
2024/02/21 13:48:22;;;;;;;0.65;0.65;;;;;;;;;;5044143;28;20242;-80
2024/02/21 13:50:48;;;;;;;0.30;0.30;;;;;;;;;;5043151;28;20227;-76
2024/02/21 13:53:15;;;;;;;0.40;0.40;;;;;;;;;;5025178;28;20230;-79
2024/02/21 13:55:43;;;;;;;0.63;0.63;;;;;;;;;;5045303;28;20228;-77
2024/02/21 13:58:10;;;;;;;0.30;0.30;;;;;;;;;;5043369;28;20601;-79
2024/02/21 14:00:36;;;;;;;0.30;0.30;;;;;;;;;;5043129;28;20440;-77
2024/02/21 14:03:03;;;;;;;0.30;0.30;;;;;;;;;;5044311;28;20276;-81
2024/02/21 14:05:30;;;;;;;0.40;0.40;;;;;;;;;;5045086;28;20250;-77
2024/02/21 14:07:57;;;;;;;0.30;0.30;;;;;;;;;;5042810;28;20658;-80
2024/02/21 14:10:23;;;;;;;0.50;0.50;;;;;;;;;;5026296;28;20293;-77
2024/02/21 14:12:49;;;;;;;0.30;0.30;;;;;;;;;;5042817;28;20220;-77
2024/02/21 14:15:16;;;;;;;0.30;0.30;;;;;;;;;;5040382;28;20231;-77
2024/02/21 14:17:43;;;;;;;0.30;0.30;;;;;;;;;;5040407;28;20263;-78
2024/02/21 14:20:09;;;;;;;0.30;0.30;;;;;;;;;;5027449;28;20224;-78
2024/02/21 14:22:38;;;;;;;0.65;0.65;;;;;;;;;;5040348;28;20227;-78
2024/02/21 14:25:05;;;;;;;0.60;0.60;;;;;;;;;;5025933;28;20224;-77
2024/02/21 14:27:32;;;;;;;0.30;0.30;;;;;;;;;;5039877;28;20231;-77
2024/02/21 14:29:58;;;;;;;0.32;0.32;;;;;;;;;;5040794;28;20311;-77
2024/02/21 14:32:25;;;;;;;0.40;0.40;;;;;;;;;;5039579;28;20232;-81
2024/02/21 14:34:51;;;;;;;0.30;0.30;;;;;;;;;;5044589;28;20231;-79
2024/02/21 14:37:18;;;;;;;0.32;0.32;;;;;;;;;;5036184;28;20223;-77
2024/02/21 14:39:44;;;;;;;0.30;0.30;;;;;;;;;;5039752;28;21269;-77
2024/02/21 14:42:10;;;;;;;0.40;0.40;;;;;;;;;;5040671;28;20227;-80
2024/02/21 14:44:37;;;;;;;0.30;0.30;;;;;;;;;;5051375;28;20223;-77